createdAt,value
2019-03-30T15:02:39.407Z,16.52
2019-03-30T15:05:11.431Z,17.55
2019-03-30T15:07:41.373Z,16.48
2019-03-30T15:10:13.319Z,15.58
2019-03-30T15:12:44.584Z,13.88
2019-03-30T15:15:15.982Z,15.08
2019-03-30T15:17:46.956Z,17.27
2019-03-30T15:20:17.686Z,15.13
2019-03-30T15:22:48.349Z,16.12
2019-03-30T15:25:20.478Z,18.52
2019-03-30T15:27:51.125Z,13.50
2019-03-30T15:30:21.723Z,13.75
2019-03-30T15:32:51.954Z,13.62
2019-03-30T15:35:22.750Z,18.40
2019-03-30T15:37:53.380Z,13.60
2019-03-30T15:40:25.218Z,12.25
2019-03-30T15:42:56.134Z,16.10
2019-03-30T15:45:26.654Z,12.80
2019-03-30T15:47:57.655Z,11.75
2019-03-30T15:50:27.558Z,12.58
2019-03-30T15:52:58.542Z,13.68
2019-03-30T15:55:29.903Z,15.55
2019-03-30T15:58:00.418Z,18.05
2019-03-30T16:00:31.358Z,14.23
2019-03-30T16:03:02.343Z,13.68
2019-03-30T16:05:33.324Z,14.68
2019-03-30T16:08:04.598Z,15.65
2019-03-30T16:10:35.127Z,14.15
2019-03-30T16:13:06.085Z,14.45
2019-03-30T16:15:37.508Z,14.38
2019-03-30T16:18:08.469Z,13.30
2019-03-30T16:20:38.661Z,12.80
2019-03-30T16:23:08.571Z,12.78
2019-03-30T16:25:39.524Z,11.75
2019-03-30T16:28:10.577Z,14.35
2019-03-30T16:30:41.225Z,16.10
2019-03-30T16:33:12.536Z,12.85
2019-03-30T16:35:42.805Z,13.48
2019-03-30T16:38:14.090Z,15.05
2019-03-30T16:40:45.049Z,18.10
2019-03-30T16:43:15.698Z,13.22
2019-03-30T16:45:46.986Z,13.03
2019-03-30T16:48:17.972Z,12.40
2019-03-30T16:50:48.617Z,15.48
2019-03-30T16:53:18.925Z,22.15
2019-03-30T16:55:51.086Z,12.70
2019-03-30T16:58:21.920Z,13.58
2019-03-30T17:00:56.776Z,14.75
2019-03-30T17:03:25.259Z,14.33
2019-03-30T17:05:56.290Z,14.68
2019-03-30T17:08:27.232Z,12.68
2019-03-30T17:10:57.839Z,12.65
2019-03-30T17:13:28.568Z,13.53
2019-03-30T17:15:59.220Z,11.55
2019-03-30T17:18:29.776Z,11.83
2019-03-30T17:21:00.025Z,11.93
2019-03-30T17:23:30.721Z,14.75
2019-03-30T17:26:01.723Z,10.85
2019-03-30T17:28:32.674Z,11.33
2019-03-30T17:31:03.591Z,10.70
2019-03-30T17:33:36.468Z,12.20
2019-03-30T17:36:07.527Z,11.60
2019-03-30T17:38:37.862Z,13.58
2019-03-30T17:41:08.134Z,13.75
2019-03-30T17:43:38.832Z,12.35
2019-03-30T17:46:09.924Z,15.32
2019-03-30T17:48:39.787Z,12.75
2019-03-30T17:51:12.387Z,13.05
2019-03-30T17:53:44.187Z,12.95
2019-03-30T17:56:14.850Z,15.25
2019-03-30T17:58:46.719Z,14.75
2019-03-30T18:01:18.040Z,13.40
2019-03-30T18:03:49.064Z,12.35
2019-03-30T18:06:20.369Z,18.57
2019-03-30T18:08:51.058Z,14.45
2019-03-30T18:11:21.281Z,17.17
2019-03-30T18:13:52.150Z,18.05
2019-03-30T18:16:24.878Z,15.80
2019-03-30T18:18:56.190Z,16.32
2019-03-30T18:21:26.786Z,19.37
2019-03-30T18:23:58.162Z,18.10
2019-03-30T18:26:28.852Z,17.60
2019-03-30T18:29:00.212Z,22.80
2019-03-30T18:31:30.360Z,19.27
2019-03-30T18:34:01.079Z,17.40
2019-03-30T18:36:33.270Z,16.73
2019-03-30T18:39:09.811Z,18.50
2019-03-30T18:41:38.274Z,16.07
2019-03-30T18:44:09.603Z,18.85
2019-03-30T18:46:40.200Z,14.03
2019-03-30T18:49:10.554Z,17.07
2019-03-30T18:51:43.400Z,15.65
2019-03-30T18:54:13.874Z,13.10
2019-03-30T18:56:44.857Z,13.72
2019-03-30T18:59:15.796Z,15.28
2019-03-30T19:01:46.703Z,15.70
2019-03-30T19:04:17.999Z,17.85
2019-03-30T19:06:51.577Z,16.17
2019-03-30T19:09:22.216Z,15.83
2019-03-30T19:11:53.465Z,17.80
2019-03-30T19:14:26.768Z,16.30
2019-03-30T19:16:56.861Z,14.53
2019-03-30T19:19:28.164Z,16.67
2019-03-30T19:21:58.893Z,17.87
2019-03-30T19:24:29.241Z,15.00
2019-03-30T19:26:59.484Z,14.40
2019-03-30T19:29:30.467Z,14.90
2019-03-30T19:32:01.474Z,18.02
2019-03-30T19:34:32.818Z,19.10
2019-03-30T19:37:03.069Z,16.70
2019-03-30T19:39:34.090Z,21.35
2019-03-30T19:42:05.092Z,18.02
2019-03-30T19:44:35.700Z,18.77
2019-03-30T19:47:06.268Z,20.97
2019-03-30T19:49:36.791Z,20.57
2019-03-30T19:52:06.682Z,26.62
2019-03-30T19:54:37.697Z,22.05
2019-03-30T19:57:08.964Z,23.02
2019-03-30T19:59:39.540Z,25.77
2019-03-30T20:02:12.912Z,27.20
2019-03-30T20:04:43.582Z,24.02
2019-03-30T20:07:13.431Z,21.82
2019-03-30T20:09:44.731Z,21.02
2019-03-30T20:12:16.031Z,21.60
2019-03-30T20:14:46.883Z,21.52
2019-03-30T20:17:18.212Z,25.95
2019-03-30T20:19:49.196Z,22.87
2019-03-30T20:22:19.433Z,25.88
2019-03-30T20:24:50.381Z,20.17
2019-03-30T20:27:20.995Z,21.37
2019-03-30T20:29:51.922Z,21.93
2019-03-30T20:32:22.876Z,23.45
2019-03-30T20:34:57.148Z,21.52
2019-03-30T20:37:27.417Z,21.30
2019-03-30T20:39:58.666Z,23.18
2019-03-30T20:42:29.591Z,25.10
2019-03-30T20:45:01.566Z,21.52
2019-03-30T20:47:32.516Z,20.85
2019-03-30T20:50:03.855Z,22.37
2019-03-30T20:52:36.534Z,22.70
2019-03-30T20:55:07.996Z,26.10
2019-03-30T20:57:39.047Z,22.80
